Time;durP1;ratioP1;P1;durP2;ratioP2;P2;SDS_P1;SDS_P2;PMS_P1;PMS_P2;Temp;Humidity;BMP_temperature;BMP_pressure;BME280_temperature;BME280_humidity;BME280_pressure;Samples;Min_cycle;Max_cycle;Signal;HPM_P1;HPM_P2
2022/03/01 00:01:52;;;;;;;15.25;8.65;;;;;;;-1.99;66.39;102991.03;7392813;19;20018;-67
2022/03/01 00:04:20;;;;;;;15.05;9.55;;;;;;;-2.00;66.07;102995.31;7393285;19;20512;-67
2022/03/01 00:06:51;;;;;;;14.73;8.25;;;;;;;-2.02;66.28;102976.28;7398641;19;20015;-67
2022/03/01 00:09:19;;;;;;;14.63;8.68;;;;;;;-2.03;66.21;102977.06;7401296;19;20086;-67
2022/03/01 00:11:47;;;;;;;15.52;8.45;;;;;;;-2.05;66.45;102988.06;7401871;19;20022;-67
2022/03/01 00:14:16;;;;;;;18.38;8.73;;;;;;;-2.09;66.11;102986.97;7400258;19;20015;-66
2022/03/01 00:16:44;;;;;;;11.63;7.88;;;;;;;-2.10;65.91;102984.28;7401438;19;20425;-67
2022/03/01 00:19:12;;;;;;;14.25;8.55;;;;;;;-2.14;65.93;102968.66;7401701;19;20015;-67
2022/03/01 00:21:40;;;;;;;14.65;8.48;;;;;;;-2.15;65.85;102964.31;7398863;19;20039;-66
2022/03/01 00:24:11;;;;;;;12.85;7.18;;;;;;;-2.17;65.62;102963.31;7400395;19;20039;-66
2022/03/01 00:26:39;;;;;;;13.48;8.35;;;;;;;-2.17;66.07;102965.88;7398564;19;20011;-67
2022/03/01 00:29:07;;;;;;;15.18;9.40;;;;;;;-2.17;65.79;102962.44;7398590;19;20018;-67
2022/03/01 00:31:35;;;;;;;10.57;7.95;;;;;;;-2.17;65.96;102965.88;7398684;19;20039;-67
2022/03/01 00:34:04;;;;;;;13.38;7.50;;;;;;;-2.17;65.53;102958.16;7400163;19;20026;-68
2022/03/01 00:36:32;;;;;;;16.95;8.18;;;;;;;-2.17;65.73;102960.72;7400760;19;20436;-67
2022/03/01 00:39:00;;;;;;;15.52;8.18;;;;;;;-2.18;65.56;102953.81;7401095;19;20090;-68
2022/03/01 00:41:31;;;;;;;14.00;8.70;;;;;;;-2.16;65.57;102956.47;7398358;19;20078;-68
2022/03/01 00:43:59;;;;;;;14.15;8.43;;;;;;;-2.16;65.75;102952.22;7400187;19;20023;-68
2022/03/01 00:46:28;;;;;;;12.90;8.27;;;;;;;-2.16;65.33;102951.31;7400539;19;20609;-68
2022/03/01 00:48:56;;;;;;;15.95;8.02;;;;;;;-2.16;65.43;102956.47;7398076;19;20029;-68
2022/03/01 00:51:25;;;;;;;13.05;7.05;;;;;;;-2.17;65.61;102947.88;7400250;19;20434;-67
2022/03/01 00:53:54;;;;;;;12.75;8.07;;;;;;;-2.18;65.24;102946.09;7399354;19;20479;-67
2022/03/01 00:56:22;;;;;;;15.00;8.38;;;;;;;-2.16;65.38;102939.38;7400420;19;20070;-68
2022/03/01 00:58:53;;;;;;;13.63;8.35;;;;;;;-2.17;64.97;102940.16;7400367;19;20035;-67
2022/03/01 01:01:21;;;;;;;16.38;8.73;;;;;;;-2.18;65.55;102933.22;7400783;19;20019;-68
2022/03/01 01:03:49;;;;;;;15.25;8.45;;;;;;;-2.18;65.19;102940.94;7399576;19;20031;-68
2022/03/01 01:06:18;;;;;;;15.57;8.75;;;;;;;-2.17;65.48;102942.72;7397634;19;20087;-67
2022/03/01 01:08:46;;;;;;;15.50;8.40;;;;;;;-2.18;65.26;102943.50;7397687;19;20472;-68
2022/03/01 01:11:14;;;;;;;15.30;8.48;;;;;;;-2.17;65.36;102934.13;7397391;19;20082;-68
2022/03/01 01:13:42;;;;;;;14.48;8.77;;;;;;;-2.18;65.22;102927.19;7399306;19;20031;-68
2022/03/01 01:16:13;;;;;;;15.60;8.25;;;;;;;-2.19;65.03;102939.16;7396726;19;20417;-68
2022/03/01 01:18:47;;;;;;;14.90;8.10;;;;;;;-2.20;64.94;102929.69;7396512;19;20014;-68
2022/03/01 01:21:16;;;;;;;11.52;7.82;;;;;;;-2.23;64.98;102924.31;7400082;19;20014;-68
2022/03/01 01:23:44;;;;;;;13.18;8.10;;;;;;;-2.21;65.43;102921.84;7398995;19;20070;-68
2022/03/01 01:26:12;;;;;;;16.55;9.10;;;;;;;-2.21;65.36;102922.75;7396759;19;20091;-68
2022/03/01 01:28:41;;;;;;;14.38;8.60;;;;;;;-2.21;65.26;102917.59;7399089;19;20425;-68
2022/03/01 01:31:09;;;;;;;12.93;7.85;;;;;;;-2.22;65.22;102915.81;7396961;19;20090;-68
2022/03/01 01:33:39;;;;;;;12.05;8.48;;;;;;;-2.24;65.21;102921.66;7398699;19;20032;-68
2022/03/01 01:36:08;;;;;;;14.43;8.07;;;;;;;-2.25;65.46;102917.28;7399617;19;20022;-68
2022/03/01 01:38:36;;;;;;;11.85;7.63;;;;;;;-2.26;65.53;102918.06;7399181;19;20027;-68
2022/03/01 01:41:04;;;;;;;13.13;7.70;;;;;;;-2.28;65.41;102917.97;7398962;19;20074;-67
2022/03/01 01:43:32;;;;;;;15.85;8.25;;;;;;;-2.29;65.35;102913.63;7396623;19;20026;-68
2022/03/01 01:46:00;;;;;;;14.00;8.07;;;;;;;-2.31;65.67;102920.38;7398408;19;20440;-68
2022/03/01 01:48:28;;;;;;;14.60;8.38;;;;;;;-2.30;65.81;102915.31;7396085;19;20420;-69
2022/03/01 01:50:59;;;;;;;18.73;9.73;;;;;;;-2.31;65.55;102916.09;7396391;19;20026;-68
2022/03/01 01:53:27;;;;;;;16.77;8.75;;;;;;;-2.32;65.64;102928.88;7396803;19;20022;-68
2022/03/01 01:55:55;;;;;;;13.35;8.18;;;;;;;-2.33;65.60;102919.38;7398557;19;20074;-68
2022/03/01 01:58:23;;;;;;;16.83;9.02;;;;;;;-2.37;65.60;102910.56;7395980;19;20408;-68
2022/03/01 02:00:51;;;;;;;14.32;8.30;;;;;;;-2.38;65.75;102918.16;7396326;19;20029;-68
2022/03/01 02:03:20;;;;;;;13.98;9.20;;;;;;;-2.40;65.91;102925.78;7398053;19;20035;-68
2022/03/01 02:05:48;;;;;;;14.85;9.05;;;;;;;-2.42;65.92;102917.06;7396152;19;20025;-68
2022/03/01 02:08:19;;;;;;;14.68;7.68;;;;;;;-2.45;66.09;102916.88;7395731;19;20500;-68
2022/03/01 02:10:47;;;;;;;16.10;8.52;;;;;;;-2.48;66.02;102921.81;7396427;19;20086;-67
2022/03/01 02:13:15;;;;;;;13.85;9.80;;;;;;;-2.51;66.31;102919.91;7400197;19;20019;-67
2022/03/01 02:15:43;;;;;;;15.13;8.48;;;;;;;-2.54;66.40;102921.38;7395914;19;20018;-67
2022/03/01 02:18:11;;;;;;;16.13;8.43;;;;;;;-2.58;66.49;102917.72;7397773;19;20019;-67
2022/03/01 02:20:42;;;;;;;12.48;8.45;;;;;;;-2.62;66.38;102926.94;7397655;19;20023;-67
2022/03/01 02:23:10;;;;;;;19.00;8.98;;;;;;;-2.65;66.39;102920.69;7396025;19;20079;-67
2022/03/01 02:25:39;;;;;;;13.95;9.00;;;;;;;-2.71;66.53;102918.56;7397292;19;20078;-68
2022/03/01 02:28:07;;;;;;;17.08;9.63;;;;;;;-2.72;66.77;102918.47;7396038;19;20022;-67
2022/03/01 02:30:36;;;;;;;14.27;8.38;;;;;;;-2.76;66.75;102913.94;7395003;19;20437;-67
2022/03/01 02:33:04;;;;;;;15.43;8.98;;;;;;;-2.80;66.88;102916.28;7397371;19;20096;-67
2022/03/01 02:35:33;;;;;;;13.10;8.00;;;;;;;-2.82;66.84;102909.25;7395279;19;20042;-67
2022/03/01 02:38:03;;;;;;;14.90;8.60;;;;;;;-2.84;67.20;102908.28;7397488;19;20026;-67
2022/03/01 02:40:32;;;;;;;18.40;8.68;;;;;;;-2.87;67.08;102918.31;7398004;19;20083;-67
2022/03/01 02:43:00;;;;;;;15.95;9.13;;;;;;;-2.90;67.12;102905.28;7396912;19;20442;-67
2022/03/01 02:45:28;;;;;;;18.98;9.57;;;;;;;-2.93;67.40;102908.53;7395060;19;20078;-67
2022/03/01 02:47:56;;;;;;;16.55;8.35;;;;;;;-2.95;67.33;102903.25;7396778;19;20026;-67
2022/03/01 02:50:25;;;;;;;17.48;9.38;;;;;;;-2.98;67.22;102894.50;7394853;19;20070;-68
2022/03/01 02:52:53;;;;;;;18.80;9.90;;;;;;;-3.00;67.71;102890.91;7394908;19;20070;-68
2022/03/01 02:55:23;;;;;;;13.23;8.30;;;;;;;-3.04;67.42;102902.66;7394677;19;20074;-68
2022/03/01 02:57:51;;;;;;;15.63;9.45;;;;;;;-3.08;67.50;102895.53;7396778;19;20018;-67
2022/03/01 03:00:20;;;;;;;13.88;8.57;;;;;;;-3.11;67.93;102898.78;7396407;19;20035;-67
2022/03/01 03:02:55;;;;;;;17.55;9.20;;;;;;;-3.14;67.68;102892.53;7395741;19;20422;-67
2022/03/01 03:05:23;;;;;;;13.50;8.82;;;;;;;-3.17;68.04;102897.44;7394412;19;20023;-68
2022/03/01 03:07:51;;;;;;;18.95;8.98;;;;;;;-3.20;68.03;102900.69;7394038;19;20507;-67
2022/03/01 03:10:19;;;;;;;19.02;8.52;;;;;;;-3.23;68.17;102897.91;7395303;19;20078;-68
2022/03/01 03:12:50;;;;;;;13.98;9.40;;;;;;;-3.24;68.27;102895.25;7395863;19;20011;-67
2022/03/01 03:15:18;;;;;;;14.20;9.18;;;;;;;-3.25;68.34;102894.34;7394405;19;20035;-68
2022/03/01 03:17:46;;;;;;;16.02;8.60;;;;;;;-3.26;68.36;102892.59;7394006;19;20022;-67
2022/03/01 03:20:14;;;;;;;15.20;9.50;;;;;;;-3.26;68.31;102897.72;7395552;19;20031;-68
2022/03/01 03:22:42;;;;;;;19.05;9.65;;;;;;;-3.28;68.46;102891.56;7394024;19;20087;-68
2022/03/01 03:25:11;;;;;;;16.35;9.35;;;;;;;-3.28;68.52;102891.56;7397942;19;20025;-68
2022/03/01 03:27:39;;;;;;;14.73;8.77;;;;;;;-3.28;68.57;102892.47;7396590;19;20010;-68
2022/03/01 03:30:12;;;;;;;14.95;9.07;;;;;;;-3.28;68.29;102886.44;7396834;19;20032;-68
2022/03/01 03:32:41;;;;;;;17.40;8.93;;;;;;;-3.29;68.11;102894.91;7395722;19;20019;-68
2022/03/01 03:35:10;;;;;;;13.18;8.48;;;;;;;-3.30;68.35;102891.47;7392709;19;20451;-68
2022/03/01 03:37:39;;;;;;;17.05;9.18;;;;;;;-3.29;68.36;102892.34;7394886;19;20031;-68
2022/03/01 03:40:08;;;;;;;16.60;10.15;;;;;;;-3.29;68.23;102885.53;7394072;19;20018;-68
2022/03/01 03:42:36;;;;;;;12.40;8.63;;;;;;;-3.29;68.21;102884.66;7393486;19;20030;-68
2022/03/01 03:45:05;;;;;;;15.43;8.95;;;;;;;-3.28;68.25;102886.44;7393071;19;20441;-68
2022/03/01 03:47:36;;;;;;;15.77;8.00;;;;;;;-3.28;68.22;102889.00;7395090;19;20018;-68
2022/03/01 03:50:04;;;;;;;14.65;8.43;;;;;;;-3.29;68.21;102884.66;7395114;19;20018;-68
2022/03/01 03:52:33;;;;;;;11.68;8.05;;;;;;;-3.27;68.17;102895.94;7393144;19;20054;-68
2022/03/01 03:55:01;;;;;;;14.98;9.20;;;;;;;-3.26;67.98;102890.03;7392872;19;20019;-68
2022/03/01 03:57:29;;;;;;;16.10;8.95;;;;;;;-3.25;68.02;102896.03;7394630;19;20018;-68
2022/03/01 03:59:57;;;;;;;13.70;8.65;;;;;;;-3.25;68.05;102896.91;7392874;19;20022;-68
2022/03/01 04:02:25;;;;;;;18.00;8.65;;;;;;;-3.25;67.84;102889.22;7394630;19;20035;-68
2022/03/01 04:04:56;;;;;;;14.70;9.15;;;;;;;-3.24;67.91;102883.28;7392518;19;20075;-68
2022/03/01 04:07:24;;;;;;;13.75;8.65;;;;;;;-3.22;67.88;102892.00;7394963;19;20027;-68
2022/03/01 04:09:52;;;;;;;13.32;8.75;;;;;;;-3.20;67.72;102889.53;7392111;19;20078;-69
2022/03/01 04:12:21;;;;;;;15.27;9.20;;;;;;;-3.20;67.58;102882.72;7394156;19;20043;-67
2022/03/01 04:14:49;;;;;;;15.45;8.50;;;;;;;-3.20;67.54;102874.13;7392155;19;20074;-67
2022/03/01 04:17:17;;;;;;;16.65;8.77;;;;;;;-3.19;67.36;102881.94;7394753;19;20014;-67
2022/03/01 04:19:45;;;;;;;14.00;9.15;;;;;;;-3.19;67.79;102876.78;7392013;19;20023;-68
2022/03/01 04:22:16;;;;;;;13.88;8.05;;;;;;;-3.23;67.66;102869.69;7392022;19;20023;-68
2022/03/01 04:24:44;;;;;;;13.75;8.55;;;;;;;-3.17;67.70;102877.81;7392694;19;20035;-67
2022/03/01 04:27:12;;;;;;;14.93;9.35;;;;;;;-3.15;67.63;102890.75;7392247;19;20371;-68
2022/03/01 04:29:40;;;;;;;13.40;8.15;;;;;;;-3.17;67.65;102885.50;7391739;19;20078;-68
2022/03/01 04:32:09;;;;;;;14.45;8.25;;;;;;;-3.17;67.49;102876.91;7391573;19;20026;-68
2022/03/01 04:34:38;;;;;;;12.73;7.72;;;;;;;-3.18;67.53;102870.88;7392163;19;20066;-67
2022/03/01 04:37:06;;;;;;;13.68;8.38;;;;;;;-3.17;67.69;102864.06;7391476;19;20022;-67
2022/03/01 04:39:36;;;;;;;15.60;8.77;;;;;;;-3.17;67.79;102867.53;7393338;19;20019;-68
2022/03/01 04:42:05;;;;;;;14.20;8.60;;;;;;;-3.18;67.45;102868.31;7391541;19;20485;-68
2022/03/01 04:44:34;;;;;;;15.43;9.02;;;;;;;-3.16;67.50;102870.97;7391816;19;20102;-68
2022/03/01 04:47:02;;;;;;;11.18;8.02;;;;;;;-3.16;67.48;102869.31;7391153;19;20014;-67
2022/03/01 04:49:31;;;;;;;13.50;8.05;;;;;;;-3.16;67.42;102866.75;7390724;19;20014;-67
2022/03/01 04:51:59;;;;;;;14.13;8.27;;;;;;;-3.15;67.35;102860.81;7392429;19;20026;-68
2022/03/01 04:54:27;;;;;;;13.90;8.77;;;;;;;-3.14;67.24;102860.03;7399453;19;20015;-68
2022/03/01 04:56:58;;;;;;;15.43;8.93;;;;;;;-3.12;67.01;102868.75;7400323;19;20023;-68
2022/03/01 04:59:26;;;;;;;15.10;8.30;;;;;;;-3.11;67.34;102861.91;7400322;19;20039;-67
2022/03/01 05:01:54;;;;;;;13.88;8.27;;;;;;;-3.11;67.06;102862.81;7397419;19;20026;-68
2022/03/01 05:04:22;;;;;;;12.27;7.80;;;;;;;-3.11;67.07;102860.25;7398746;19;20023;-68
2022/03/01 05:06:51;;;;;;;14.30;8.68;;;;;;;-3.08;67.26;102859.56;7397141;19;20035;-67
2022/03/01 05:09:21;;;;;;;12.82;7.70;;;;;;;-3.06;66.79;102857.09;7399540;19;20014;-67
2022/03/01 05:11:49;;;;;;;13.70;7.85;;;;;;;-3.06;67.10;102859.66;7397303;19;20019;-67
2022/03/01 05:14:21;;;;;;;10.98;7.82;;;;;;;-3.04;67.17;102865.81;7398549;19;20050;-68
2022/03/01 05:16:49;;;;;;;16.55;9.10;;;;;;;-3.04;67.00;102864.13;7397629;19;20365;-69
2022/03/01 05:19:18;;;;;;;15.23;8.60;;;;;;;-3.02;66.99;102869.34;7399222;19;20031;-69
2022/03/01 05:21:46;;;;;;;15.88;8.85;;;;;;;-3.00;66.75;102867.78;7399512;19;20026;-68
2022/03/01 05:24:14;;;;;;;16.38;9.18;;;;;;;-3.01;67.02;102871.16;7398265;19;20018;-68
2022/03/01 05:26:44;;;;;;;15.18;8.80;;;;;;;-2.97;66.91;102874.03;7398530;19;20018;-67
2022/03/01 05:29:12;;;;;;;11.05;7.72;;;;;;;-2.96;66.73;102878.41;7399075;19;20015;-67
2022/03/01 05:31:43;;;;;;;18.83;9.13;;;;;;;-2.95;67.01;102881.84;7396242;19;20038;-68
2022/03/01 05:34:11;;;;;;;15.48;8.65;;;;;;;-2.95;66.79;102879.28;7397854;19;20018;-67
2022/03/01 05:36:39;;;;;;;12.45;8.48;;;;;;;-2.95;66.70;102885.28;7396511;19;20023;-67
2022/03/01 05:39:07;;;;;;;19.67;8.73;;;;;;;-2.93;67.00;102879.38;7398819;19;20017;-68
2022/03/01 05:41:36;;;;;;;15.15;10.50;;;;;;;-2.92;66.93;102889.75;7396518;19;20424;-68
2022/03/01 05:44:04;;;;;;;14.63;8.90;;;;;;;-2.91;66.81;102886.38;7397927;19;20022;-68
2022/03/01 05:46:33;;;;;;;19.70;9.80;;;;;;;-2.91;66.99;102883.81;7398509;19;20015;-68
2022/03/01 05:49:03;;;;;;;13.88;8.50;;;;;;;-2.91;66.82;102886.38;7398450;19;20018;-68
2022/03/01 05:51:32;;;;;;;13.63;8.45;;;;;;;-2.90;66.80;102884.72;7397940;19;20354;-67
2022/03/01 05:54:00;;;;;;;14.98;8.23;;;;;;;-2.92;66.85;102889.75;7396530;19;20486;-67
2022/03/01 05:56:28;;;;;;;15.25;9.13;;;;;;;-2.92;66.59;102892.31;7395392;19;20042;-69
2022/03/01 05:58:56;;;;;;;14.88;8.73;;;;;;;-2.92;67.06;102891.44;7397589;19;20015;-69
2022/03/01 06:01:24;;;;;;;14.57;8.75;;;;;;;-2.91;67.03;102890.66;7397007;19;20035;-68
2022/03/01 06:03:52;;;;;;;17.88;8.35;;;;;;;-2.93;66.75;102890.56;7395950;19;20010;-69
2022/03/01 06:06:23;;;;;;;14.05;9.23;;;;;;;-2.94;66.95;102888.75;7395688;19;20472;-67
2022/03/01 06:08:51;;;;;;;21.35;9.63;;;;;;;-2.95;66.89;102887.84;7394346;19;20027;-67
2022/03/01 06:11:20;;;;;;;14.98;8.30;;;;;;;-2.95;67.07;102886.97;7395523;19;20022;-67
2022/03/01 06:13:48;;;;;;;16.65;9.75;;;;;;;-2.95;67.04;102898.13;7394646;19;20483;-68
2022/03/01 06:16:17;;;;;;;15.95;8.95;;;;;;;-2.93;66.94;102893.13;7397961;19;20142;-68
2022/03/01 06:18:45;;;;;;;15.63;8.65;;;;;;;-2.93;66.89;102895.69;7396284;19;20474;-68
2022/03/01 06:21:14;;;;;;;15.30;8.73;;;;;;;-2.93;66.78;102893.13;7395945;19;20014;-68
2022/03/01 06:23:44;;;;;;;13.65;8.68;;;;;;;-2.92;66.73;102889.75;7394733;19;20022;-68
2022/03/01 06:26:12;;;;;;;15.10;9.07;;;;;;;-2.91;66.86;102888.97;7394102;19;20022;-69
2022/03/01 06:28:41;;;;;;;15.38;9.45;;;;;;;-2.90;66.81;102893.31;7396473;19;20457;-68
2022/03/01 06:31:09;;;;;;;16.58;8.77;;;;;;;-2.88;66.90;102893.41;7396244;19;20018;-68
2022/03/01 06:33:37;;;;;;;13.90;8.52;;;;;;;-2.87;66.52;102892.63;7394547;19;20043;-67
2022/03/01 06:36:05;;;;;;;14.95;9.60;;;;;;;-2.84;66.82;102892.84;7394202;19;20022;-68
2022/03/01 06:38:41;;;;;;;16.38;9.27;;;;;;;-2.83;66.40;102895.53;7395841;19;20031;-68
2022/03/01 06:41:11;;;;;;;17.65;9.80;;;;;;;-2.80;66.50;102895.72;7396629;19;20026;-67
2022/03/01 06:43:39;;;;;;;14.55;9.55;;;;;;;-2.79;66.59;102891.50;7396147;19;20035;-68
2022/03/01 06:46:08;;;;;;;13.88;8.85;;;;;;;-2.76;66.36;102888.22;7394417;19;20394;-68
2022/03/01 06:48:36;;;;;;;15.73;10.55;;;;;;;-2.74;66.22;102886.63;7394946;19;20023;-68
2022/03/01 06:51:07;;;;;;;14.95;8.65;;;;;;;-2.71;66.40;102892.00;7396404;19;20031;-68
2022/03/01 06:53:36;;;;;;;15.95;9.90;;;;;;;-2.68;66.12;102889.63;7395052;19;20078;-68
2022/03/01 06:56:04;;;;;;;16.27;9.82;;;;;;;-2.67;65.94;102884.56;7394410;19;20018;-68
2022/03/01 06:58:35;;;;;;;14.85;9.35;;;;;;;-2.63;65.84;102881.44;7396370;19;20031;-68
2022/03/01 07:01:03;;;;;;;14.20;9.07;;;;;;;-2.57;65.73;102892.94;7396539;19;20116;-68
2022/03/01 07:03:34;;;;;;;14.70;8.70;;;;;;;-2.53;65.89;102890.63;7395784;19;20022;-68
2022/03/01 07:06:02;;;;;;;16.25;9.63;;;;;;;-2.50;65.89;102885.72;7394316;19;20042;-69
2022/03/01 07:08:30;;;;;;;13.82;8.20;;;;;;;-2.44;65.45;102887.78;7393467;19;20487;-68
2022/03/01 07:10:58;;;;;;;15.80;9.20;;;;;;;-2.40;65.45;102887.22;7395680;19;20094;-68
2022/03/01 07:13:27;;;;;;;15.70;8.68;;;;;;;-2.35;65.44;102882.38;7393515;19;20393;-68
2022/03/01 07:15:57;;;;;;;14.70;8.85;;;;;;;-2.29;65.52;102882.78;7393271;19;20035;-67
2022/03/01 07:18:25;;;;;;;14.68;9.23;;;;;;;-2.23;65.37;102882.28;7395697;19;20027;-68
2022/03/01 07:20:54;;;;;;;13.38;8.88;;;;;;;-2.18;65.50;102876.63;7395175;19;20018;-67
2022/03/01 07:23:22;;;;;;;14.32;9.43;;;;;;;-2.14;64.53;102873.50;7394769;19;20031;-67
2022/03/01 07:25:50;;;;;;;17.38;10.02;;;;;;;-2.05;64.89;102877.44;7394864;19;20023;-67
2022/03/01 07:28:18;;;;;;;14.93;9.00;;;;;;;-2.00;64.60;102881.19;7394131;19;20007;-67
2022/03/01 07:30:46;;;;;;;14.70;8.60;;;;;;;-1.94;64.73;102879.03;7393232;19;20026;-67
2022/03/01 07:33:17;;;;;;;16.80;9.68;;;;;;;-1.87;64.86;102878.63;7391934;19;20018;-67
2022/03/01 07:35:45;;;;;;;16.42;10.02;;;;;;;-1.81;64.81;102876.44;7392510;19;20014;-67
2022/03/01 07:38:13;;;;;;;14.25;9.30;;;;;;;-1.74;64.76;102876.84;7392066;19;20452;-67
2022/03/01 07:40:41;;;;;;;14.90;9.18;;;;;;;-1.68;64.54;102875.53;7392597;19;20014;-67
2022/03/01 07:43:10;;;;;;;17.38;10.02;;;;;;;-1.61;64.36;102870.78;7394330;19;20014;-68
2022/03/01 07:45:38;;;;;;;12.85;8.18;;;;;;;-1.55;64.25;102877.19;7393798;19;20387;-68
2022/03/01 07:48:07;;;;;;;17.95;9.82;;;;;;;-1.49;63.52;102877.56;7394676;19;20046;-68
2022/03/01 07:50:38;;;;;;;13.90;8.30;;;;;;;-1.43;64.04;102874.47;7392863;19;20042;-68
2022/03/01 07:53:06;;;;;;;14.90;8.90;;;;;;;-1.36;63.98;102876.63;7393422;19;20023;-69
2022/03/01 07:55:35;;;;;;;25.13;13.27;;;;;;;-1.31;64.05;102877.81;7392738;19;20022;-68
2022/03/01 07:58:03;;;;;;;26.10;13.35;;;;;;;-1.22;64.12;102868.88;7392651;19;20056;-67
2022/03/01 08:00:31;;;;;;;14.65;8.43;;;;;;;-1.15;63.85;102869.34;7394208;19;20018;-66
2022/03/01 08:02:59;;;;;;;16.88;8.80;;;;;;;-1.08;63.57;102864.56;7394465;19;20014;-67
2022/03/01 08:05:28;;;;;;;13.23;8.82;;;;;;;-1.01;63.38;102866.69;7392079;19;20018;-67
2022/03/01 08:08:01;;;;;;;13.60;8.98;;;;;;;-0.93;63.04;102870.63;7393270;19;20501;-67
2022/03/01 08:10:30;;;;;;;11.48;8.43;;;;;;;-0.86;62.87;102867.63;7394339;19;20027;-67
2022/03/01 08:12:58;;;;;;;10.90;8.07;;;;;;;-0.78;62.97;102869.72;7392205;19;20035;-66
2022/03/01 08:15:27;;;;;;;10.82;7.60;;;;;;;-0.71;61.63;102869.31;7392062;19;20069;-68
2022/03/01 08:17:57;;;;;;;11.90;8.45;;;;;;;-0.62;62.45;102869.88;7391802;19;20078;-67
2022/03/01 08:20:26;;;;;;;14.27;8.40;;;;;;;-0.54;61.81;102863.44;7391439;19;20038;-67
2022/03/01 08:22:54;;;;;;;12.15;7.90;;;;;;;-0.43;61.83;102858.94;7391038;19;20027;-67
2022/03/01 08:25:25;;;;;;;14.73;8.27;;;;;;;-0.31;62.03;102858.72;7391691;19;20026;-68
2022/03/01 08:27:53;;;;;;;12.68;7.78;;;;;;;-0.22;61.67;102859.25;7398376;19;20022;-68
2022/03/01 08:30:22;;;;;;;12.65;7.85;;;;;;;-0.13;61.16;102853.72;7401353;19;20032;-67
2022/03/01 08:32:50;;;;;;;11.85;8.50;;;;;;;-0.04;60.66;102853.34;7398440;19;20358;-66
2022/03/01 08:35:25;;;;;;;13.10;7.82;;;;;;;0.06;59.43;102853.03;7398204;19;20014;-68
2022/03/01 08:37:54;;;;;;;14.02;7.70;;;;;;;0.17;59.44;102852.78;7400690;19;20032;-67
2022/03/01 08:40:24;;;;;;;11.02;7.85;;;;;;;0.27;59.00;102842.13;7400444;19;20015;-67
2022/03/01 08:42:52;;;;;;;10.80;7.68;;;;;;;0.36;58.83;102847.78;7398233;19;20031;-66
2022/03/01 08:45:21;;;;;;;11.93;7.55;;;;;;;0.44;58.47;102850.78;7397654;19;20014;-67
2022/03/01 08:47:49;;;;;;;12.18;7.25;;;;;;;0.52;57.97;102849.50;7400433;19;20025;-67
2022/03/01 08:50:17;;;;;;;11.02;7.32;;;;;;;0.59;56.66;102845.56;7400607;19;20104;-67
2022/03/01 08:52:45;;;;;;;14.77;10.70;;;;;;;0.66;57.77;102850.25;7398731;19;20039;-66
2022/03/01 08:55:14;;;;;;;12.82;8.20;;;;;;;0.72;57.28;102848.00;7397298;19;20011;-67
2022/03/01 08:57:45;;;;;;;11.65;8.65;;;;;;;0.79;56.43;102837.16;7399940;19;20041;-67
2022/03/01 09:00:16;;;;;;;16.10;7.90;;;;;;;0.86;56.24;102837.47;7399769;19;20418;-68
2022/03/01 09:02:45;;;;;;;11.85;7.82;;;;;;;0.92;55.34;102835.22;7397687;19;20014;-68
2022/03/01 09:05:14;;;;;;;14.32;8.27;;;;;;;1.00;55.94;102841.66;7397723;19;20035;-68
2022/03/01 09:07:42;;;;;;;12.80;6.95;;;;;;;1.04;55.36;102835.84;7397299;19;20472;-68
2022/03/01 09:10:11;;;;;;;11.77;7.82;;;;;;;1.10;54.63;102828.41;7397324;19;20032;-66
2022/03/01 09:12:39;;;;;;;12.15;7.32;;;;;;;1.17;54.49;102832.19;7398673;19;20018;-67
2022/03/01 09:15:11;;;;;;;10.32;6.85;;;;;;;1.24;53.49;102830.78;7397156;19;20018;-67
2022/03/01 09:17:40;;;;;;;13.68;7.68;;;;;;;1.31;54.69;102827.69;7399642;19;20019;-68
2022/03/01 09:20:09;;;;;;;10.50;7.72;;;;;;;1.38;54.57;102829.78;7397273;19;20022;-68
2022/03/01 09:22:37;;;;;;;10.43;7.80;;;;;;;1.43;54.40;102823.13;7398926;19;20492;-67
2022/03/01 09:25:06;;;;;;;10.73;7.25;;;;;;;1.48;54.24;102820.78;7397265;19;20031;-66
2022/03/01 09:27:35;;;;;;;10.55;6.88;;;;;;;1.53;53.93;102818.41;7396272;19;20375;-66
2022/03/01 09:30:03;;;;;;;12.02;7.60;;;;;;;1.55;53.68;102815.09;7396461;19;20392;-66
2022/03/01 09:32:34;;;;;;;11.10;7.20;;;;;;;1.58;52.51;102817.84;7398339;19;20018;-66
2022/03/01 09:35:03;;;;;;;12.50;6.65;;;;;;;1.65;53.26;102812.97;7397102;19;20042;-66
2022/03/01 09:37:33;;;;;;;13.07;7.60;;;;;;;1.68;53.55;102802.75;7395174;19;20014;-66
2022/03/01 09:40:01;;;;;;;13.15;7.03;;;;;;;1.68;52.83;102798.47;7395920;19;20539;-66
2022/03/01 09:42:31;;;;;;;11.80;7.53;;;;;;;1.79;53.08;102809.31;7396501;19;20022;-67
2022/03/01 09:45:00;;;;;;;12.70;7.63;;;;;;;1.86;52.81;102810.50;7397018;19;20019;-67
2022/03/01 09:47:28;;;;;;;11.65;7.30;;;;;;;1.92;52.72;102801.34;7398356;19;20476;-67
2022/03/01 09:49:59;;;;;;;12.07;7.60;;;;;;;1.96;52.42;102802.38;7396282;19;20512;-67
2022/03/01 09:52:27;;;;;;;10.18;7.00;;;;;;;2.02;52.24;102800.06;7398280;19;20018;-67
2022/03/01 09:54:55;;;;;;;11.88;7.53;;;;;;;2.05;52.21;102792.44;7396573;19;20022;-66
2022/03/01 09:57:24;;;;;;;11.65;7.40;;;;;;;2.09;52.58;102798.63;7398357;19;20394;-67
2022/03/01 09:59:53;;;;;;;11.05;6.72;;;;;;;2.12;52.08;102791.00;7397821;19;20498;-66
2022/03/01 10:02:22;;;;;;;11.45;7.85;;;;;;;2.15;49.24;102785.06;7398086;19;20020;-67
2022/03/01 10:04:54;;;;;;;12.50;7.45;;;;;;;2.21;51.63;102787.94;7396204;19;20031;-67
2022/03/01 10:07:30;;;;;;;10.43;7.07;;;;;;;2.29;50.70;102784.00;7395547;19;20015;-67
2022/03/01 10:10:07;;;;;;;14.25;7.22;;;;;;;2.32;47.77;102783.28;7398166;19;20134;-66
2022/03/01 10:12:36;;;;;;;9.95;6.22;;;;;;;2.36;50.76;102782.56;7396594;19;20380;-67
2022/03/01 10:15:10;;;;;;;11.65;6.35;;;;;;;2.39;50.22;102775.84;7394840;19;20018;-68
2022/03/01 10:17:39;;;;;;;10.52;7.25;;;;;;;2.46;49.69;102776.13;7398755;19;20036;-69
2022/03/01 10:20:10;;;;;;;10.27;6.03;;;;;;;2.51;50.07;102772.00;7395449;19;20488;-66
2022/03/01 10:22:46;;;;;;;10.73;6.70;;;;;;;2.57;49.24;102772.28;7395665;19;20041;-67
2022/03/01 10:25:16;;;;;;;8.52;5.75;;;;;;;2.62;49.48;102763.00;7395767;19;20066;-66
2022/03/01 10:27:46;;;;;;;10.82;6.68;;;;;;;2.68;49.33;102762.38;7395926;19;20036;-65
2022/03/01 10:30:24;;;;;;;21.42;12.32;;;;;;;2.73;48.42;102764.34;7396633;19;20481;-66
2022/03/01 10:32:52;;;;;;;13.07;7.85;;;;;;;2.80;49.06;102756.84;7396358;19;20015;-66
2022/03/01 10:35:20;;;;;;;9.55;7.03;;;;;;;2.85;47.75;102751.03;7395486;19;20035;-65
2022/03/01 10:37:52;;;;;;;9.65;6.28;;;;;;;2.92;48.42;102759.97;7394985;19;20018;-65
2022/03/01 10:40:23;;;;;;;11.63;7.55;;;;;;;2.97;48.23;102740.31;7396945;19;20031;-64
2022/03/01 10:43:02;;;;;;;9.43;6.07;;;;;;;3.06;46.08;102745.84;7396806;19;20018;-65
2022/03/01 10:45:38;;;;;;;9.85;6.15;;;;;;;3.12;46.47;102739.16;7394781;19;20019;-65
2022/03/01 10:48:08;;;;;;;10.88;6.15;;;;;;;3.20;47.29;102737.78;7397361;19;20018;-66
2022/03/01 10:50:37;;;;;;;8.90;5.93;;;;;;;3.25;47.43;102729.34;7394572;19;20022;-66
2022/03/01 10:53:08;;;;;;;8.40;6.10;;;;;;;3.30;45.35;102718.25;7394695;19;20023;-65
2022/03/01 10:55:42;;;;;;;9.25;6.13;;;;;;;3.35;46.58;102732.28;7394057;19;20472;-65
2022/03/01 10:58:14;;;;;;;10.05;6.22;;;;;;;3.37;44.49;102721.16;7396842;19;20010;-64
2022/03/01 11:00:42;;;;;;;8.15;5.40;;;;;;;3.41;44.70;102714.38;7396473;19;20038;-64
2022/03/01 11:03:11;;;;;;;9.90;6.50;;;;;;;3.47;47.45;102717.22;7395969;19;20346;-65
2022/03/01 11:05:41;;;;;;;11.13;7.47;;;;;;;3.66;48.01;102717.94;7394169;19;20027;-67
2022/03/01 11:08:14;;;;;;;11.85;6.40;;;;;;;3.85;47.24;102707.41;7395494;19;20037;-66
2022/03/01 11:10:43;;;;;;;12.97;7.97;;;;;;;4.07;46.26;102708.25;7393818;19;20031;-64
2022/03/01 11:13:12;;;;;;;9.77;6.28;;;;;;;4.15;46.03;102705.91;7394755;19;20022;-64
2022/03/01 11:16:07;;;;;;;10.52;5.88;;;;;;;4.15;43.33;102703.31;7395400;19;20014;-64
2022/03/01 11:18:45;;;;;;;8.70;5.40;;;;;;;4.15;45.27;102692.94;7395851;19;20014;-64
2022/03/01 11:21:14;;;;;;;8.07;5.47;;;;;;;4.15;45.60;102686.00;7394920;19;20022;-67
2022/03/01 11:23:46;;;;;;;11.50;6.47;;;;;;;4.14;45.12;102686.81;7394866;19;20023;-66
2022/03/01 11:26:18;;;;;;;9.52;6.35;;;;;;;4.14;45.90;102676.44;7393299;19;20026;-67
2022/03/01 11:28:54;;;;;;;10.43;7.38;;;;;;;4.17;44.59;102673.06;7392547;19;20027;-67